This is the latest recevied weather packets stored in our database for station/object WY7ATH-2. If no packets are shown the sender has not sent any weather packets the latest 10 day(s).
| Time | Temp. | Humidity | Pressure | Rain* | Wind** | Luminosity | Snow |
|---|---|---|---|---|---|---|---|
| 1777534113 | -1.11° C | - | - | 0 mm | 0 m/s | - | - |
| 1777532322 | -1.11° C | - | - | 0 mm | 0 m/s | - | - |
| 1777529931 | -0.56° C | - | - | 0 mm | 0 m/s | - | - |
| 1777529334 | -0.56° C | - | - | 0 mm | 0 m/s | - | - |
| 1777528141 | 1.11° C | - | - | 0 mm | 0 m/s | - | - |
| 1777527544 | 0.56° C | - | - | 0 mm | 0 m/s | - | - |
| 1777526943 | 0° C | - | - | 0 mm | 0 m/s | - | - |
| 1777526346 | 0° C | - | - | 0 mm | 0 m/s | - | - |
| 1777525749 | 1.67° C | - | - | 0 mm | 0 m/s | - | - |
| 1777525152 | 3.33° C | - | - | 0 mm | 0 m/s | - | - |
| 1777524556 | 3.33° C | - | - | 0 mm | 0 m/s | - | - |
| 1777523959 | 3.33° C | - | - | 0 mm | 0 m/s | - | - |
| 1777522165 | 2.78° C | - | - | 0 mm | 0 m/s | - | - |
| 1777520972 | 2.22° C | - | - | 0 mm | 0 m/s | - | - |
| 1777520374 | 1.67° C | - | - | 0 mm | 0 m/s | - | - |
| 1777519773 | 1.67° C | - | - | 0 mm | 0 m/s | - | - |
| 1777519176 | 1.11° C | - | - | 0 mm | 0 m/s | - | - |
| 1777518580 | 1.67° C | - | - | 0 mm | 0 m/s | - | - |
| 1777517711 | 5.56° C | - | - | 11.94 mm | 0 m/s | - | - |
| 1777516789 | 2.22° C | - | - | 1.78 mm | 0 m/s | - | - |
| 1777515592 | 2.78° C | - | - | 1.78 mm | 0 m/s | - | - |
| 1777508422 | 7.22° C | - | - | 9.91 mm | 0 m/s | - | - |
| 1777507825 | 7.78° C | - | - | 9.91 mm | 0 m/s | - | - |
| 1777505434 | 6.11° C | - | - | 10.16 mm | 0 m/s | - | - |
| 1777497667 | 7.78° C | - | - | 11.94 mm | 0 m/s | - | - |
* Rain latest hour (hover to see other rain measurements)
** Current wind speed in m/s (hover to see current wind gust speed)